sensor_id;sensor_type;location;lat;lon;timestamp;temperature;humidity
26262;DHT22;13988;52.446;13.280;2022-12-05T00:01:42;2.90;99.90
26262;DHT22;13988;52.446;13.280;2022-12-05T00:04:10;2.80;99.90
26262;DHT22;13988;52.446;13.280;2022-12-05T00:06:37;2.90;99.90
26262;DHT22;13988;52.446;13.280;2022-12-05T00:09:05;3.00;99.90
26262;DHT22;13988;52.446;13.280;2022-12-05T00:11:33;2.80;99.90
26262;DHT22;13988;52.446;13.280;2022-12-05T00:14:00;2.80;99.90
26262;DHT22;13988;52.446;13.280;2022-12-05T00:16:29;3.00;99.90
26262;DHT22;13988;52.446;13.280;2022-12-05T00:18:54;2.90;99.90
26262;DHT22;13988;52.446;13.280;2022-12-05T00:21:25;2.90;99.90
26262;DHT22;13988;52.446;13.280;2022-12-05T00:23:52;2.90;99.90
26262;DHT22;13988;52.446;13.280;2022-12-05T00:26:19;2.90;99.90
26262;DHT22;13988;52.446;13.280;2022-12-05T00:28:45;2.90;99.90
26262;DHT22;13988;52.446;13.280;2022-12-05T00:31:13;2.90;99.90
26262;DHT22;13988;52.446;13.280;2022-12-05T00:33:40;2.90;99.90
26262;DHT22;13988;52.446;13.280;2022-12-05T00:36:11;3.00;99.90
26262;DHT22;13988;52.446;13.280;2022-12-05T00:38:38;2.90;99.90
26262;DHT22;13988;52.446;13.280;2022-12-05T00:41:12;2.90;99.90
26262;DHT22;13988;52.446;13.280;2022-12-05T00:43:39;2.90;99.90
26262;DHT22;13988;52.446;13.280;2022-12-05T00:46:06;3.00;99.90
26262;DHT22;13988;52.446;13.280;2022-12-05T00:48:33;2.90;99.90
26262;DHT22;13988;52.446;13.280;2022-12-05T00:51:03;2.90;99.90
26262;DHT22;13988;52.446;13.280;2022-12-05T00:53:29;2.90;99.90
26262;DHT22;13988;52.446;13.280;2022-12-05T00:55:55;2.90;99.90
26262;DHT22;13988;52.446;13.280;2022-12-05T00:58:21;2.90;99.90
26262;DHT22;13988;52.446;13.280;2022-12-05T01:00:46;3.00;99.90
26262;DHT22;13988;52.446;13.280;2022-12-05T01:03:12;2.90;99.90
26262;DHT22;13988;52.446;13.280;2022-12-05T01:05:38;2.90;99.90
26262;DHT22;13988;52.446;13.280;2022-12-05T01:08:03;2.90;99.90
26262;DHT22;13988;52.446;13.280;2022-12-05T01:10:29;2.90;99.90
26262;DHT22;13988;52.446;13.280;2022-12-05T01:12:55;2.90;99.90
26262;DHT22;13988;52.446;13.280;2022-12-05T01:15:20;2.90;99.90
26262;DHT22;13988;52.446;13.280;2022-12-05T01:17:46;3.10;99.90
26262;DHT22;13988;52.446;13.280;2022-12-05T01:20:11;2.90;99.90
26262;DHT22;13988;52.446;13.280;2022-12-05T01:22:38;2.90;99.90
26262;DHT22;13988;52.446;13.280;2022-12-05T01:25:03;2.90;99.90
26262;DHT22;13988;52.446;13.280;2022-12-05T01:27:29;2.90;99.90
26262;DHT22;13988;52.446;13.280;2022-12-05T01:29:55;2.90;99.90
26262;DHT22;13988;52.446;13.280;2022-12-05T01:32:21;2.90;99.90
26262;DHT22;13988;52.446;13.280;2022-12-05T01:34:47;2.90;99.90
26262;DHT22;13988;52.446;13.280;2022-12-05T01:37:12;2.90;99.90
26262;DHT22;13988;52.446;13.280;2022-12-05T01:39:38;3.00;99.90
26262;DHT22;13988;52.446;13.280;2022-12-05T01:42:04;2.90;99.90
26262;DHT22;13988;52.446;13.280;2022-12-05T01:46:56;2.90;99.90
26262;DHT22;13988;52.446;13.280;2022-12-05T01:49:27;2.90;99.90
26262;DHT22;13988;52.446;13.280;2022-12-05T01:51:59;2.90;99.90
26262;DHT22;13988;52.446;13.280;2022-12-05T01:54:25;3.00;99.90
26262;DHT22;13988;52.446;13.280;2022-12-05T01:56:55;2.90;99.90
26262;DHT22;13988;52.446;13.280;2022-12-05T01:59:22;3.00;99.90
26262;DHT22;13988;52.446;13.280;2022-12-05T02:01:49;2.90;99.90
26262;DHT22;13988;52.446;13.280;2022-12-05T02:04:15;3.00;99.90
26262;DHT22;13988;52.446;13.280;2022-12-05T02:06:41;2.90;99.90
26262;DHT22;13988;52.446;13.280;2022-12-05T02:09:07;3.00;99.90
26262;DHT22;13988;52.446;13.280;2022-12-05T02:11:33;3.00;99.90
26262;DHT22;13988;52.446;13.280;2022-12-05T02:20:43;2.90;99.90
26262;DHT22;13988;52.446;13.280;2022-12-05T02:22:55;3.00;99.90
26262;DHT22;13988;52.446;13.280;2022-12-05T02:28:43;3.00;99.90
26262;DHT22;13988;52.446;13.280;2022-12-05T02:39:39;3.00;99.90
26262;DHT22;13988;52.446;13.280;2022-12-05T02:42:50;3.00;99.90
26262;DHT22;13988;52.446;13.280;2022-12-05T02:45:19;3.00;99.90
26262;DHT22;13988;52.446;13.280;2022-12-05T02:47:50;3.00;99.90
26262;DHT22;13988;52.446;13.280;2022-12-05T02:50:20;3.00;99.90
26262;DHT22;13988;52.446;13.280;2022-12-05T02:52:48;3.00;99.90
26262;DHT22;13988;52.446;13.280;2022-12-05T02:55:16;3.00;99.90
26262;DHT22;13988;52.446;13.280;2022-12-05T02:57:45;3.00;99.90
26262;DHT22;13988;52.446;13.280;2022-12-05T03:00:13;3.00;99.90
26262;DHT22;13988;52.446;13.280;2022-12-05T03:02:39;3.00;99.90
26262;DHT22;13988;52.446;13.280;2022-12-05T03:05:37;3.00;99.90
26262;DHT22;13988;52.446;13.280;2022-12-05T03:08:08;3.00;99.90
26262;DHT22;13988;52.446;13.280;2022-12-05T03:10:37;3.00;99.90
26262;DHT22;13988;52.446;13.280;2022-12-05T03:13:10;3.00;99.90
26262;DHT22;13988;52.446;13.280;2022-12-05T03:15:41;3.00;99.90
26262;DHT22;13988;52.446;13.280;2022-12-05T03:18:14;3.00;99.90
26262;DHT22;13988;52.446;13.280;2022-12-05T03:21:06;3.10;99.90
26262;DHT22;13988;52.446;13.280;2022-12-05T03:23:37;3.00;99.90
26262;DHT22;13988;52.446;13.280;2022-12-05T03:26:05;3.10;99.90
26262;DHT22;13988;52.446;13.280;2022-12-05T03:31:13;3.00;99.90
26262;DHT22;13988;52.446;13.280;2022-12-05T03:33:44;3.00;99.90
26262;DHT22;13988;52.446;13.280;2022-12-05T03:36:22;3.00;99.90
26262;DHT22;13988;52.446;13.280;2022-12-05T03:39:09;3.10;99.90
26262;DHT22;13988;52.446;13.280;2022-12-05T03:41:45;3.10;99.90
26262;DHT22;13988;52.446;13.280;2022-12-05T03:49:48;3.10;99.90
26262;DHT22;13988;52.446;13.280;2022-12-05T03:52:31;3.10;99.90
26262;DHT22;13988;52.446;13.280;2022-12-05T03:55:01;3.10;99.90
26262;DHT22;13988;52.446;13.280;2022-12-05T03:57:40;3.10;99.90
26262;DHT22;13988;52.446;13.280;2022-12-05T04:00:16;3.30;99.90
26262;DHT22;13988;52.446;13.280;2022-12-05T04:05:42;3.10;99.90
26262;DHT22;13988;52.446;13.280;2022-12-05T04:08:36;3.10;99.90
26262;DHT22;13988;52.446;13.280;2022-12-05T04:11:03;3.10;99.90
26262;DHT22;13988;52.446;13.280;2022-12-05T04:13:47;3.10;99.90
26262;DHT22;13988;52.446;13.280;2022-12-05T04:22:19;3.10;99.90
26262;DHT22;13988;52.446;13.280;2022-12-05T04:24:46;3.10;99.90
26262;DHT22;13988;52.446;13.280;2022-12-05T04:30:53;3.10;99.90
26262;DHT22;13988;52.446;13.280;2022-12-05T04:33:31;3.10;99.90
26262;DHT22;13988;52.446;13.280;2022-12-05T04:36:11;3.10;99.90
26262;DHT22;13988;52.446;13.280;2022-12-05T04:41:16;3.10;99.90
26262;DHT22;13988;52.446;13.280;2022-12-05T04:43:44;3.10;99.90
26262;DHT22;13988;52.446;13.280;2022-12-05T04:46:13;3.10;99.90
26262;DHT22;13988;52.446;13.280;2022-12-05T04:48:42;3.10;99.90
26262;DHT22;13988;52.446;13.280;2022-12-05T04:51:15;3.10;99.90
26262;DHT22;13988;52.446;13.280;2022-12-05T04:53:44;3.10;99.90
26262;DHT22;13988;52.446;13.280;2022-12-05T04:56:14;3.10;99.90
26262;DHT22;13988;52.446;13.280;2022-12-05T04:58:41;3.10;99.90
26262;DHT22;13988;52.446;13.280;2022-12-05T05:01:17;3.20;99.90
26262;DHT22;13988;52.446;13.280;2022-12-05T05:03:45;3.20;99.90
26262;DHT22;13988;52.446;13.280;2022-12-05T05:06:13;3.20;99.90
26262;DHT22;13988;52.446;13.280;2022-12-05T05:08:48;3.20;99.90
26262;DHT22;13988;52.446;13.280;2022-12-05T05:11:24;3.20;99.90
26262;DHT22;13988;52.446;13.280;2022-12-05T05:13:51;3.20;99.90
26262;DHT22;13988;52.446;13.280;2022-12-05T05:16:23;3.20;99.90
26262;DHT22;13988;52.446;13.280;2022-12-05T05:18:50;3.20;99.90
26262;DHT22;13988;52.446;13.280;2022-12-05T05:21:30;3.20;99.90
26262;DHT22;13988;52.446;13.280;2022-12-05T05:23:56;3.20;99.90
26262;DHT22;13988;52.446;13.280;2022-12-05T05:26:23;3.20;99.90
26262;DHT22;13988;52.446;13.280;2022-12-05T05:28:49;3.20;99.90
26262;DHT22;13988;52.446;13.280;2022-12-05T05:31:16;3.20;99.90
26262;DHT22;13988;52.446;13.280;2022-12-05T05:33:46;3.40;99.90
26262;DHT22;13988;52.446;13.280;2022-12-05T05:36:12;3.20;99.90
26262;DHT22;13988;52.446;13.280;2022-12-05T05:38:41;3.20;99.90
26262;DHT22;13988;52.446;13.280;2022-12-05T05:41:21;3.30;99.90
26262;DHT22;13988;52.446;13.280;2022-12-05T05:43:48;3.20;99.90
26262;DHT22;13988;52.446;13.280;2022-12-05T05:46:15;3.20;99.90
26262;DHT22;13988;52.446;13.280;2022-12-05T05:48:41;3.20;99.90
26262;DHT22;13988;52.446;13.280;2022-12-05T05:51:12;3.20;99.90
26262;DHT22;13988;52.446;13.280;2022-12-05T05:53:38;3.20;99.90
26262;DHT22;13988;52.446;13.280;2022-12-05T05:56:09;3.20;99.90
26262;DHT22;13988;52.446;13.280;2022-12-05T05:58:35;3.20;99.90
26262;DHT22;13988;52.446;13.280;2022-12-05T06:01:12;3.20;99.90
26262;DHT22;13988;52.446;13.280;2022-12-05T06:03:39;3.20;99.90
26262;DHT22;13988;52.446;13.280;2022-12-05T06:06:07;3.20;99.90
26262;DHT22;13988;52.446;13.280;2022-12-05T06:08:35;3.20;99.90
26262;DHT22;13988;52.446;13.280;2022-12-05T06:11:13;3.20;99.90
26262;DHT22;13988;52.446;13.280;2022-12-05T06:13:39;3.20;99.90
26262;DHT22;13988;52.446;13.280;2022-12-05T06:16:08;3.30;99.90
26262;DHT22;13988;52.446;13.280;2022-12-05T06:18:35;3.20;99.90
26262;DHT22;13988;52.446;13.280;2022-12-05T06:21:01;3.20;99.90
26262;DHT22;13988;52.446;13.280;2022-12-05T06:23:26;3.30;99.90
26262;DHT22;13988;52.446;13.280;2022-12-05T06:25:54;3.30;99.90
26262;DHT22;13988;52.446;13.280;2022-12-05T06:28:22;3.30;99.90
26262;DHT22;13988;52.446;13.280;2022-12-05T06:30:48;3.20;99.90
26262;DHT22;13988;52.446;13.280;2022-12-05T06:33:14;3.30;99.90
26262;DHT22;13988;52.446;13.280;2022-12-05T06:35:40;3.30;99.90
26262;DHT22;13988;52.446;13.280;2022-12-05T06:38:07;3.30;99.90
26262;DHT22;13988;52.446;13.280;2022-12-05T06:40:33;3.30;99.90
26262;DHT22;13988;52.446;13.280;2022-12-05T06:42:59;3.30;99.90
26262;DHT22;13988;52.446;13.280;2022-12-05T06:45:24;3.30;99.90
26262;DHT22;13988;52.446;13.280;2022-12-05T06:47:51;3.30;99.90
26262;DHT22;13988;52.446;13.280;2022-12-05T06:50:17;3.30;99.90
26262;DHT22;13988;52.446;13.280;2022-12-05T06:52:42;3.30;99.90
26262;DHT22;13988;52.446;13.280;2022-12-05T06:55:08;3.30;99.90
26262;DHT22;13988;52.446;13.280;2022-12-05T06:57:34;3.30;99.90
26262;DHT22;13988;52.446;13.280;2022-12-05T07:00:00;3.30;99.90
26262;DHT22;13988;52.446;13.280;2022-12-05T07:02:44;3.30;99.90
26262;DHT22;13988;52.446;13.280;2022-12-05T07:05:10;3.30;99.90
26262;DHT22;13988;52.446;13.280;2022-12-05T07:07:36;3.30;99.90
26262;DHT22;13988;52.446;13.280;2022-12-05T07:10:04;3.30;99.90
26262;DHT22;13988;52.446;13.280;2022-12-05T07:12:31;3.30;99.90
26262;DHT22;13988;52.446;13.280;2022-12-05T07:14:58;3.30;99.90
26262;DHT22;13988;52.446;13.280;2022-12-05T07:17:23;3.30;99.90
26262;DHT22;13988;52.446;13.280;2022-12-05T07:19:50;3.30;99.90
26262;DHT22;13988;52.446;13.280;2022-12-05T07:22:21;3.30;99.90
26262;DHT22;13988;52.446;13.280;2022-12-05T07:24:47;3.30;99.90
26262;DHT22;13988;52.446;13.280;2022-12-05T07:27:15;3.30;99.90
26262;DHT22;13988;52.446;13.280;2022-12-05T07:29:40;3.30;99.90
26262;DHT22;13988;52.446;13.280;2022-12-05T07:32:07;3.30;99.90
26262;DHT22;13988;52.446;13.280;2022-12-05T07:34:33;3.30;99.90
26262;DHT22;13988;52.446;13.280;2022-12-05T07:36:59;3.50;99.90
26262;DHT22;13988;52.446;13.280;2022-12-05T07:39:25;3.40;99.90
26262;DHT22;13988;52.446;13.280;2022-12-05T07:41:50;3.40;99.90
26262;DHT22;13988;52.446;13.280;2022-12-05T07:44:16;3.40;99.90
26262;DHT22;13988;52.446;13.280;2022-12-05T07:46:42;3.40;99.90
26262;DHT22;13988;52.446;13.280;2022-12-05T07:49:07;3.30;99.90
26262;DHT22;13988;52.446;13.280;2022-12-05T07:51:33;3.40;99.90
26262;DHT22;13988;52.446;13.280;2022-12-05T07:54:00;3.40;99.90
26262;DHT22;13988;52.446;13.280;2022-12-05T07:56:25;3.40;99.90
26262;DHT22;13988;52.446;13.280;2022-12-05T07:58:51;3.40;99.90
26262;DHT22;13988;52.446;13.280;2022-12-05T08:01:23;3.30;99.90
26262;DHT22;13988;52.446;13.280;2022-12-05T08:03:51;3.30;99.90
26262;DHT22;13988;52.446;13.280;2022-12-05T08:06:19;3.30;99.90
26262;DHT22;13988;52.446;13.280;2022-12-05T08:08:46;3.40;99.90
26262;DHT22;13988;52.446;13.280;2022-12-05T08:11:18;3.40;99.90
26262;DHT22;13988;52.446;13.280;2022-12-05T08:13:44;3.40;99.90
26262;DHT22;13988;52.446;13.280;2022-12-05T08:16:12;3.40;99.90
26262;DHT22;13988;52.446;13.280;2022-12-05T08:18:38;3.60;99.90
26262;DHT22;13988;52.446;13.280;2022-12-05T08:21:10;3.40;99.90
26262;DHT22;13988;52.446;13.280;2022-12-05T08:23:37;3.50;99.90
26262;DHT22;13988;52.446;13.280;2022-12-05T08:26:09;3.40;99.90
26262;DHT22;13988;52.446;13.280;2022-12-05T08:28:36;3.40;99.90
26262;DHT22;13988;52.446;13.280;2022-12-05T08:31:22;3.40;99.90
26262;DHT22;13988;52.446;13.280;2022-12-05T08:33:49;3.40;99.90
26262;DHT22;13988;52.446;13.280;2022-12-05T08:36:16;3.40;99.90
26262;DHT22;13988;52.446;13.280;2022-12-05T08:38:43;3.40;99.90
26262;DHT22;13988;52.446;13.280;2022-12-05T08:41:11;3.50;99.90
26262;DHT22;13988;52.446;13.280;2022-12-05T08:43:37;3.40;99.90
26262;DHT22;13988;52.446;13.280;2022-12-05T08:46:03;3.50;99.90
26262;DHT22;13988;52.446;13.280;2022-12-05T08:48:30;3.50;99.90
26262;DHT22;13988;52.446;13.280;2022-12-05T08:50:57;3.50;99.90
26262;DHT22;13988;52.446;13.280;2022-12-05T08:53:23;3.50;99.90
26262;DHT22;13988;52.446;13.280;2022-12-05T08:55:49;3.50;99.90
26262;DHT22;13988;52.446;13.280;2022-12-05T08:58:14;3.50;99.90
26262;DHT22;13988;52.446;13.280;2022-12-05T09:00:40;3.40;99.90
26262;DHT22;13988;52.446;13.280;2022-12-05T09:03:07;3.40;99.90
26262;DHT22;13988;52.446;13.280;2022-12-05T09:05:33;3.40;99.90
26262;DHT22;13988;52.446;13.280;2022-12-05T09:07:59;3.40;99.90
26262;DHT22;13988;52.446;13.280;2022-12-05T09:10:25;3.40;99.90
26262;DHT22;13988;52.446;13.280;2022-12-05T09:12:51;3.40;99.90
26262;DHT22;13988;52.446;13.280;2022-12-05T09:15:17;3.40;99.90
26262;DHT22;13988;52.446;13.280;2022-12-05T09:17:43;3.40;99.90
26262;DHT22;13988;52.446;13.280;2022-12-05T09:20:09;3.60;99.90
26262;DHT22;13988;52.446;13.280;2022-12-05T09:22:36;3.40;99.90
26262;DHT22;13988;52.446;13.280;2022-12-05T09:25:02;3.40;99.90
26262;DHT22;13988;52.446;13.280;2022-12-05T09:27:28;3.50;99.90
26262;DHT22;13988;52.446;13.280;2022-12-05T09:29:53;3.50;99.90
26262;DHT22;13988;52.446;13.280;2022-12-05T09:32:19;3.50;99.90
26262;DHT22;13988;52.446;13.280;2022-12-05T09:34:45;3.40;99.90
26262;DHT22;13988;52.446;13.280;2022-12-05T09:37:10;3.40;99.90
26262;DHT22;13988;52.446;13.280;2022-12-05T09:39:37;3.50;99.90
26262;DHT22;13988;52.446;13.280;2022-12-05T09:42:36;3.40;99.90
26262;DHT22;13988;52.446;13.280;2022-12-05T09:45:20;3.40;99.90
26262;DHT22;13988;52.446;13.280;2022-12-05T09:48:05;3.40;99.90
26262;DHT22;13988;52.446;13.280;2022-12-05T09:50:59;3.40;99.90
26262;DHT22;13988;52.446;13.280;2022-12-05T09:53:31;3.60;99.90
26262;DHT22;13988;52.446;13.280;2022-12-05T09:56:05;3.50;99.90
26262;DHT22;13988;52.446;13.280;2022-12-05T10:04:01;3.40;99.90
26262;DHT22;13988;52.446;13.280;2022-12-05T10:06:39;3.40;99.90
26262;DHT22;13988;52.446;13.280;2022-12-05T10:12:17;3.40;99.90
26262;DHT22;13988;52.446;13.280;2022-12-05T10:15:07;3.50;99.90
26262;DHT22;13988;52.446;13.280;2022-12-05T10:17:38;3.40;99.90
26262;DHT22;13988;52.446;13.280;2022-12-05T10:20:15;3.50;99.90
26262;DHT22;13988;52.446;13.280;2022-12-05T10:22:46;3.40;99.90
26262;DHT22;13988;52.446;13.280;2022-12-05T10:25:16;3.50;99.90
26262;DHT22;13988;52.446;13.280;2022-12-05T10:27:48;3.40;99.90
26262;DHT22;13988;52.446;13.280;2022-12-05T10:30:17;3.50;99.90
26262;DHT22;13988;52.446;13.280;2022-12-05T10:35:18;3.60;99.90
26262;DHT22;13988;52.446;13.280;2022-12-05T10:37:47;3.50;99.90
26262;DHT22;13988;52.446;13.280;2022-12-05T10:40:14;3.50;99.90
26262;DHT22;13988;52.446;13.280;2022-12-05T10:42:40;3.50;99.90
26262;DHT22;13988;52.446;13.280;2022-12-05T10:45:12;3.70;99.90
26262;DHT22;13988;52.446;13.280;2022-12-05T10:47:38;3.50;99.90
26262;DHT22;13988;52.446;13.280;2022-12-05T10:50:14;3.50;99.90
26262;DHT22;13988;52.446;13.280;2022-12-05T10:52:40;3.50;99.90
26262;DHT22;13988;52.446;13.280;2022-12-05T10:55:06;3.50;99.90
26262;DHT22;13988;52.446;13.280;2022-12-05T10:57:32;3.50;99.90
26262;DHT22;13988;52.446;13.280;2022-12-05T11:00:09;3.50;99.90
26262;DHT22;13988;52.446;13.280;2022-12-05T11:02:36;3.60;99.90
26262;DHT22;13988;52.446;13.280;2022-12-05T11:05:02;3.60;99.90
26262;DHT22;13988;52.446;13.280;2022-12-05T11:07:29;3.50;99.90
26262;DHT22;13988;52.446;13.280;2022-12-05T11:09:56;3.60;99.90
26262;DHT22;13988;52.446;13.280;2022-12-05T11:12:36;3.50;99.90
26262;DHT22;13988;52.446;13.280;2022-12-05T11:15:17;3.60;99.90
26262;DHT22;13988;52.446;13.280;2022-12-05T11:17:46;3.70;99.90
26262;DHT22;13988;52.446;13.280;2022-12-05T11:20:34;3.60;99.90
26262;DHT22;13988;52.446;13.280;2022-12-05T11:26:32;3.70;99.90
26262;DHT22;13988;52.446;13.280;2022-12-05T11:28:59;3.70;99.90
26262;DHT22;13988;52.446;13.280;2022-12-05T11:31:27;3.80;99.90
26262;DHT22;13988;52.446;13.280;2022-12-05T11:37:25;3.70;99.90
26262;DHT22;13988;52.446;13.280;2022-12-05T11:39:31;3.70;99.90
26262;DHT22;13988;52.446;13.280;2022-12-05T11:42:15;3.80;99.90
26262;DHT22;13988;52.446;13.280;2022-12-05T11:58:40;3.80;99.90
26262;DHT22;13988;52.446;13.280;2022-12-05T12:01:54;3.80;99.90
26262;DHT22;13988;52.446;13.280;2022-12-05T12:10:06;3.80;99.90
26262;DHT22;13988;52.446;13.280;2022-12-05T12:40:33;3.80;99.90
26262;DHT22;13988;52.446;13.280;2022-12-05T12:46:01;3.80;99.90
26262;DHT22;13988;52.446;13.280;2022-12-05T12:51:16;3.80;99.90
26262;DHT22;13988;52.446;13.280;2022-12-05T12:54:03;3.80;99.90
26262;DHT22;13988;52.446;13.280;2022-12-05T12:59:55;3.80;99.90
26262;DHT22;13988;52.446;13.280;2022-12-05T13:05:37;3.90;99.90
26262;DHT22;13988;52.446;13.280;2022-12-05T13:08:09;3.80;99.90
26262;DHT22;13988;52.446;13.280;2022-12-05T13:10:42;3.80;99.90
26262;DHT22;13988;52.446;13.280;2022-12-05T13:13:13;3.90;99.90
26262;DHT22;13988;52.446;13.280;2022-12-05T13:15:55;3.80;99.90
26262;DHT22;13988;52.446;13.280;2022-12-05T13:18:24;3.90;99.90
26262;DHT22;13988;52.446;13.280;2022-12-05T13:20:54;3.90;99.90
26262;DHT22;13988;52.446;13.280;2022-12-05T13:23:24;4.10;99.90
26262;DHT22;13988;52.446;13.280;2022-12-05T13:25:52;4.00;99.90
26262;DHT22;13988;52.446;13.280;2022-12-05T13:28:28;3.90;99.90
26262;DHT22;13988;52.446;13.280;2022-12-05T13:30:56;3.90;99.90
26262;DHT22;13988;52.446;13.280;2022-12-05T13:33:33;3.90;99.90
26262;DHT22;13988;52.446;13.280;2022-12-05T13:36:08;3.80;99.90
26262;DHT22;13988;52.446;13.280;2022-12-05T13:38:56;3.90;99.90
26262;DHT22;13988;52.446;13.280;2022-12-05T13:41:43;3.90;99.90
26262;DHT22;13988;52.446;13.280;2022-12-05T13:47:18;4.00;99.90
26262;DHT22;13988;52.446;13.280;2022-12-05T13:50:13;4.00;99.90
26262;DHT22;13988;52.446;13.280;2022-12-05T13:52:52;4.00;99.90
26262;DHT22;13988;52.446;13.280;2022-12-05T13:55:56;4.00;99.90
26262;DHT22;13988;52.446;13.280;2022-12-05T14:00:50;3.90;99.90
26262;DHT22;13988;52.446;13.280;2022-12-05T14:03:53;3.90;99.90
26262;DHT22;13988;52.446;13.280;2022-12-05T14:06:07;3.90;99.90
26262;DHT22;13988;52.446;13.280;2022-12-05T14:11:07;4.00;99.90
26262;DHT22;13988;52.446;13.280;2022-12-05T14:21:57;3.90;99.90
26262;DHT22;13988;52.446;13.280;2022-12-05T14:32:21;3.90;99.90
26262;DHT22;13988;52.446;13.280;2022-12-05T14:40:35;3.90;99.90
26262;DHT22;13988;52.446;13.280;2022-12-05T14:56:20;3.90;99.90
26262;DHT22;13988;52.446;13.280;2022-12-05T15:01:41;3.90;99.90
26262;DHT22;13988;52.446;13.280;2022-12-05T15:06:54;4.00;99.90
26262;DHT22;13988;52.446;13.280;2022-12-05T15:09:36;4.00;99.90
26262;DHT22;13988;52.446;13.280;2022-12-05T15:12:10;4.00;99.90
26262;DHT22;13988;52.446;13.280;2022-12-05T15:14:43;4.00;99.90
26262;DHT22;13988;52.446;13.280;2022-12-05T15:17:15;4.00;99.90
26262;DHT22;13988;52.446;13.280;2022-12-05T15:19:55;4.00;99.90
26262;DHT22;13988;52.446;13.280;2022-12-05T15:22:23;4.00;99.90
26262;DHT22;13988;52.446;13.280;2022-12-05T15:24:51;4.00;99.90
26262;DHT22;13988;52.446;13.280;2022-12-05T15:27:16;4.10;99.90
26262;DHT22;13988;52.446;13.280;2022-12-05T15:29:42;4.20;99.90
26262;DHT22;13988;52.446;13.280;2022-12-05T15:34:52;4.10;99.90
26262;DHT22;13988;52.446;13.280;2022-12-05T15:37:22;4.00;99.90
26262;DHT22;13988;52.446;13.280;2022-12-05T15:39:50;4.00;99.90
26262;DHT22;13988;52.446;13.280;2022-12-05T15:42:18;4.00;99.90
26262;DHT22;13988;52.446;13.280;2022-12-05T15:44:44;4.10;99.90
26262;DHT22;13988;52.446;13.280;2022-12-05T15:47:19;4.00;99.90
26262;DHT22;13988;52.446;13.280;2022-12-05T15:49:46;4.10;99.90
26262;DHT22;13988;52.446;13.280;2022-12-05T15:52:23;4.10;99.90
26262;DHT22;13988;52.446;13.280;2022-12-05T15:54:50;4.20;99.90
26262;DHT22;13988;52.446;13.280;2022-12-05T15:57:36;4.10;99.90
26262;DHT22;13988;52.446;13.280;2022-12-05T16:00:06;4.10;99.90
26262;DHT22;13988;52.446;13.280;2022-12-05T16:03:10;4.10;99.90
26262;DHT22;13988;52.446;13.280;2022-12-05T16:05:44;4.10;99.90
26262;DHT22;13988;52.446;13.280;2022-12-05T16:08:11;4.10;99.90
26262;DHT22;13988;52.446;13.280;2022-12-05T16:10:37;4.10;99.90
26262;DHT22;13988;52.446;13.280;2022-12-05T16:13:15;4.10;99.90
26262;DHT22;13988;52.446;13.280;2022-12-05T16:15:47;4.10;99.90
26262;DHT22;13988;52.446;13.280;2022-12-05T16:18:29;4.10;99.90
26262;DHT22;13988;52.446;13.280;2022-12-05T16:20:55;4.10;99.90
26262;DHT22;13988;52.446;13.280;2022-12-05T16:23:31;4.10;99.90
26262;DHT22;13988;52.446;13.280;2022-12-05T16:26:18;4.20;99.90
26262;DHT22;13988;52.446;13.280;2022-12-05T16:28:59;4.10;99.90
26262;DHT22;13988;52.446;13.280;2022-12-05T16:31:26;4.10;99.90
26262;DHT22;13988;52.446;13.280;2022-12-05T16:34:06;4.10;99.90
26262;DHT22;13988;52.446;13.280;2022-12-05T16:36:33;4.10;99.90
26262;DHT22;13988;52.446;13.280;2022-12-05T16:39:06;4.10;99.90
26262;DHT22;13988;52.446;13.280;2022-12-05T16:41:38;4.10;99.90
26262;DHT22;13988;52.446;13.280;2022-12-05T16:44:08;4.10;99.90
26262;DHT22;13988;52.446;13.280;2022-12-05T16:46:51;4.10;99.90
26262;DHT22;13988;52.446;13.280;2022-12-05T16:54:32;4.20;99.90
26262;DHT22;13988;52.446;13.280;2022-12-05T16:56:59;4.20;99.90
26262;DHT22;13988;52.446;13.280;2022-12-05T16:59:36;4.20;99.90
26262;DHT22;13988;52.446;13.280;2022-12-05T17:02:04;4.20;99.90
26262;DHT22;13988;52.446;13.280;2022-12-05T17:04:31;4.10;99.90
26262;DHT22;13988;52.446;13.280;2022-12-05T17:06:57;4.20;99.90
26262;DHT22;13988;52.446;13.280;2022-12-05T17:09:23;4.20;99.90
26262;DHT22;13988;52.446;13.280;2022-12-05T17:11:53;4.20;99.90
26262;DHT22;13988;52.446;13.280;2022-12-05T17:14:20;4.20;99.90
26262;DHT22;13988;52.446;13.280;2022-12-05T17:16:46;4.20;99.90
26262;DHT22;13988;52.446;13.280;2022-12-05T17:19:12;4.20;99.90
26262;DHT22;13988;52.446;13.280;2022-12-05T17:21:39;4.20;99.90
26262;DHT22;13988;52.446;13.280;2022-12-05T17:24:11;4.20;99.90
26262;DHT22;13988;52.446;13.280;2022-12-05T17:26:39;4.20;99.90
26262;DHT22;13988;52.446;13.280;2022-12-05T17:29:04;4.20;99.90
26262;DHT22;13988;52.446;13.280;2022-12-05T17:31:30;4.20;99.90
26262;DHT22;13988;52.446;13.280;2022-12-05T17:33:56;4.30;99.90
26262;DHT22;13988;52.446;13.280;2022-12-05T17:36:21;4.20;99.90
26262;DHT22;13988;52.446;13.280;2022-12-05T17:38:48;4.20;99.90
26262;DHT22;13988;52.446;13.280;2022-12-05T17:41:15;4.20;99.90
26262;DHT22;13988;52.446;13.280;2022-12-05T17:43:42;4.20;99.90
26262;DHT22;13988;52.446;13.280;2022-12-05T17:46:08;4.20;99.90
26262;DHT22;13988;52.446;13.280;2022-12-05T17:48:34;4.20;99.90
26262;DHT22;13988;52.446;13.280;2022-12-05T17:51:00;4.20;99.90
26262;DHT22;13988;52.446;13.280;2022-12-05T17:53:27;4.20;99.90
26262;DHT22;13988;52.446;13.280;2022-12-05T17:55:52;4.20;99.90
26262;DHT22;13988;52.446;13.280;2022-12-05T17:58:18;4.40;99.90
26262;DHT22;13988;52.446;13.280;2022-12-05T18:00:45;4.30;99.90
26262;DHT22;13988;52.446;13.280;2022-12-05T18:03:15;4.20;99.90
26262;DHT22;13988;52.446;13.280;2022-12-05T18:05:41;4.20;99.90
26262;DHT22;13988;52.446;13.280;2022-12-05T18:08:08;4.40;99.90
26262;DHT22;13988;52.446;13.280;2022-12-05T18:10:33;4.30;99.90
26262;DHT22;13988;52.446;13.280;2022-12-05T18:12:59;4.30;99.90
26262;DHT22;13988;52.446;13.280;2022-12-05T18:15:24;4.40;99.90
26262;DHT22;13988;52.446;13.280;2022-12-05T18:17:50;4.40;99.90
26262;DHT22;13988;52.446;13.280;2022-12-05T18:20:16;4.30;99.90
26262;DHT22;13988;52.446;13.280;2022-12-05T18:22:42;4.20;99.90
26262;DHT22;13988;52.446;13.280;2022-12-05T18:25:08;4.30;99.90
26262;DHT22;13988;52.446;13.280;2022-12-05T18:27:35;4.30;99.90
26262;DHT22;13988;52.446;13.280;2022-12-05T18:30:01;4.30;99.90
26262;DHT22;13988;52.446;13.280;2022-12-05T18:32:28;4.30;99.90
26262;DHT22;13988;52.446;13.280;2022-12-05T18:34:53;4.30;99.90
26262;DHT22;13988;52.446;13.280;2022-12-05T18:37:19;4.30;99.90
26262;DHT22;13988;52.446;13.280;2022-12-05T18:39:46;4.20;99.90
26262;DHT22;13988;52.446;13.280;2022-12-05T18:42:12;4.20;99.90
26262;DHT22;13988;52.446;13.280;2022-12-05T18:44:37;4.20;99.90
26262;DHT22;13988;52.446;13.280;2022-12-05T18:47:03;4.20;99.90